Time;durP1;ratioP1;P1;durP2;ratioP2;P2;SDS_P1;SDS_P2;PMS_P1;PMS_P2;Temp;Humidity;BMP_temperature;BMP_pressure;BME280_temperature;BME280_humidity;BME280_pressure;Samples;Min_cycle;Max_cycle;Signal;HPM_P1;HPM_P2
2022/05/23 00:04:28;;;;;;;2.90;1.60;;;22.00;25.20;;;;;;10435438;28;20237;-72
2022/05/23 00:09:32;;;;;;;1.80;1.70;;;22.00;25.10;;;;;;10432041;28;20319;-72
2022/05/23 00:14:35;;;;;;;1.50;1.40;;;21.90;25.50;;;;;;10434577;28;20227;-73
2022/05/23 00:19:39;;;;;;;1.57;1.47;;;21.90;25.50;;;;;;10436109;28;20233;-72
2022/05/23 00:24:45;;;;;;;1.67;1.57;;;21.90;25.50;;;;;;10435671;28;20314;-73
2022/05/23 00:29:48;;;;;;;1.50;1.40;;;21.80;25.70;;;;;;10434436;28;20248;-73
2022/05/23 00:40:27;;;;;;;1.53;1.43;;;21.80;25.60;;;;;;10432282;28;20772;-72
2022/05/23 00:45:30;;;;;;;1.80;1.30;;;21.80;26.40;;;;;;10432289;28;20323;-73
2022/05/23 00:50:35;;;;;;;1.50;1.40;;;21.80;25.60;;;;;;10433793;28;20601;-73
2022/05/23 00:55:44;;;;;;;1.53;1.43;;;21.80;25.70;;;;;;10430506;28;20240;-73
2022/05/23 01:00:48;;;;;;;1.80;1.70;;;21.80;26.30;;;;;;10432989;28;20248;-72
2022/05/23 01:05:54;;;;;;;1.70;1.33;;;21.70;25.70;;;;;;10428925;28;20256;-72
2022/05/23 01:10:59;;;;;;;1.70;1.60;;;21.70;25.80;;;;;;10431140;28;20225;-72
2022/05/23 01:16:02;;;;;;;1.60;1.50;;;21.70;26.50;;;;;;10427625;28;20229;-72
2022/05/23 01:21:09;;;;;;;1.77;1.67;;;21.70;26.20;;;;;;10431656;28;20239;-72
2022/05/23 01:26:14;;;;;;;1.50;1.40;;;21.70;26.50;;;;;;10431158;28;20252;-72
2022/05/23 01:31:17;;;;;;;2.00;1.50;;;21.70;26.50;;;;;;10426523;28;20225;-69
2022/05/23 01:36:21;;;;;;;3.90;1.80;;;21.70;26.50;;;;;;10435340;28;20239;-69
2022/05/23 01:41:25;;;;;;;1.90;1.80;;;21.70;26.50;;;;;;10428689;28;20236;-69
2022/05/23 01:46:28;;;;;;;2.10;1.30;;;21.70;26.50;;;;;;10431135;28;20326;-69
2022/05/23 01:51:32;;;;;;;2.03;1.70;;;21.60;26.40;;;;;;10430984;28;20318;-69
2022/05/23 01:56:36;;;;;;;1.70;1.60;;;21.60;26.40;;;;;;10431745;28;20232;-69
2022/05/23 02:01:39;;;;;;;1.57;1.47;;;21.60;26.80;;;;;;10430901;28;20572;-69
2022/05/23 02:06:43;;;;;;;1.73;1.63;;;21.60;26.40;;;;;;10430278;28;20228;-69
2022/05/23 02:11:47;;;;;;;1.73;1.63;;;21.50;26.30;;;;;;10431811;28;20230;-69
2022/05/23 02:16:51;;;;;;;1.83;1.63;;;21.40;26.80;;;;;;10427705;28;20244;-69
2022/05/23 02:21:54;;;;;;;3.13;1.20;;;21.30;26.20;;;;;;10431584;28;20251;-69
2022/05/23 02:26:59;;;;;;;1.30;1.20;;;21.30;26.20;;;;;;10427488;28;20236;-69
2022/05/23 02:32:03;;;;;;;1.33;1.30;;;21.20;26.60;;;;;;10431121;28;20241;-69
2022/05/23 02:37:06;;;;;;;1.57;1.27;;;21.20;26.50;;;;;;10432073;28;20241;-69
2022/05/23 02:42:11;;;;;;;2.03;1.60;;;21.20;26.60;;;;;;10436248;28;20242;-70
2022/05/23 02:47:14;;;;;;;2.07;1.50;;;21.10;26.90;;;;;;10437287;28;20236;-69
2022/05/23 02:52:18;;;;;;;2.73;1.53;;;21.10;26.80;;;;;;10439118;28;20221;-69
2022/05/23 02:57:22;;;;;;;1.83;1.73;;;21.10;26.80;;;;;;10437081;28;20279;-69
2022/05/23 03:07:46;;;;;;;1.90;1.53;;;21.10;26.90;;;;;;10436427;28;20368;-69
2022/05/23 03:12:51;;;;;;;1.53;1.43;;;21.10;26.90;;;;;;10437112;28;20887;-69
2022/05/23 03:17:54;;;;;;;1.33;1.23;;;21.10;27.40;;;;;;10436610;28;20236;-69
2022/05/23 03:28:19;;;;;;;1.67;1.50;;;21.10;27.20;;;;;;10435964;28;20224;-69
2022/05/23 03:33:23;;;;;;;1.63;1.40;;;21.10;27.50;;;;;;10437085;28;20224;-69
2022/05/23 03:38:27;;;;;;;2.10;1.70;;;21.10;27.50;;;;;;10437909;28;20225;-72
2022/05/23 03:43:31;;;;;;;1.83;1.70;;;21.10;27.30;;;;;;10433383;28;20722;-72
2022/05/23 03:48:35;;;;;;;1.70;1.60;;;21.00;27.50;;;;;;10436399;28;20228;-72
2022/05/23 03:53:38;;;;;;;1.70;1.60;;;21.00;27.30;;;;;;10431442;28;20221;-71
2022/05/23 03:58:43;;;;;;;1.60;1.50;;;21.00;27.50;;;;;;10435018;28;20225;-71
2022/05/23 04:03:46;;;;;;;1.83;1.60;;;20.90;27.70;;;;;;10434333;28;20228;-71
2022/05/23 04:08:49;;;;;;;2.20;1.70;;;20.90;27.70;;;;;;10436475;28;20704;-72
2022/05/23 04:13:54;;;;;;;2.30;1.93;;;20.90;27.80;;;;;;10433827;28;20701;-71
2022/05/23 04:18:57;;;;;;;1.70;1.60;;;20.80;28.30;;;;;;10434254;28;20255;-72
2022/05/23 04:24:00;;;;;;;1.73;1.63;;;20.80;27.90;;;;;;10425671;28;20229;-72
2022/05/23 04:29:07;;;;;;;3.43;1.90;;;20.70;28.00;;;;;;10432704;28;20236;-72
2022/05/23 04:39:31;;;;;;;2.10;2.00;;;20.70;28.20;;;;;;10429009;28;20248;-72
2022/05/23 04:44:35;;;;;;;1.83;1.73;;;20.60;28.20;;;;;;10429116;28;20909;-72
2022/05/23 04:49:49;;;;;;;2.03;1.83;;;20.60;28.50;;;;;;10429287;28;20897;-73
2022/05/23 04:54:53;;;;;;;3.37;1.80;;;20.60;28.40;;;;;;10433125;28;20756;-73
2022/05/23 04:59:57;;;;;;;2.07;1.87;;;20.60;28.50;;;;;;10430267;28;20228;-72
2022/05/23 05:05:00;;;;;;;2.33;1.90;;;20.60;28.80;;;;;;10430745;28;20229;-72
2022/05/23 05:10:04;;;;;;;2.43;1.70;;;20.60;28.60;;;;;;10433648;28;20218;-76
2022/05/23 05:15:10;;;;;;;3.33;1.70;;;20.60;28.40;;;;;;10432753;28;20232;-79
2022/05/23 05:20:14;;;;;;;2.10;1.90;;;20.60;28.50;;;;;;10428721;28;20230;-74
2022/05/23 05:25:18;;;;;;;2.13;1.67;;;20.60;28.20;;;;;;10434720;28;20221;-73
2022/05/23 05:30:23;;;;;;;1.90;1.70;;;20.70;28.30;;;;;;10432802;28;20236;-73
2022/05/23 05:35:33;;;;;;;2.73;1.90;;;20.70;28.30;;;;;;10430516;28;20243;-73
2022/05/23 05:40:36;;;;;;;3.17;2.10;;;20.70;28.50;;;;;;10429187;28;20602;-72
2022/05/23 05:45:45;;;;;;;2.30;1.93;;;20.80;28.30;;;;;;10434671;28;20233;-73
2022/05/23 05:50:50;;;;;;;3.70;1.90;;;20.80;28.70;;;;;;10428164;28;20236;-73
2022/05/23 05:55:53;;;;;;;3.67;2.10;;;20.90;28.50;;;;;;10422425;28;20225;-72
2022/05/23 06:00:58;;;;;;;2.80;2.00;;;21.00;28.40;;;;;;10428088;28;20232;-73
2022/05/23 06:11:24;;;;;;;5.33;2.30;;;21.20;28.50;;;;;;10426922;28;20229;-72
2022/05/23 06:16:31;;;;;;;1.97;1.80;;;21.30;28.40;;;;;;10428360;28;20229;-69
2022/05/23 06:21:34;;;;;;;2.27;2.00;;;21.40;28.60;;;;;;10424656;28;20374;-72
2022/05/23 06:26:37;;;;;;;2.93;2.00;;;21.50;28.30;;;;;;10428319;28;20752;-72
2022/05/23 06:31:46;;;;;;;2.27;2.07;;;21.70;28.40;;;;;;10428063;28;20229;-72
2022/05/23 06:36:49;;;;;;;3.37;2.20;;;21.70;28.50;;;;;;10429822;28;20231;-73
2022/05/23 06:41:52;;;;;;;5.50;2.40;;;21.80;28.60;;;;;;10432789;28;20229;-76
2022/05/23 06:46:57;;;;;;;6.20;2.43;;;21.80;29.40;;;;;;10433744;28;20239;-74
2022/05/23 06:52:00;;;;;;;3.33;2.10;;;21.70;29.70;;;;;;10424964;28;20701;-74
2022/05/23 06:57:04;;;;;;;3.57;2.50;;;21.50;29.80;;;;;;10431169;28;20300;-73
2022/05/23 07:02:09;;;;;;;2.60;2.40;;;21.20;30.00;;;;;;10431897;28;20221;-73
2022/05/23 07:12:33;;;;;;;3.30;2.93;;;20.60;31.20;;;;;;10433942;28;20232;-74
2022/05/23 07:17:38;;;;;;;3.20;2.90;;;20.40;31.40;;;;;;10430466;28;20795;-72
2022/05/23 07:22:41;;;;;;;3.20;2.90;;;20.30;32.40;;;;;;10428966;28;20217;-73
2022/05/23 07:27:44;;;;;;;3.27;2.97;;;20.20;31.80;;;;;;10430631;28;20224;-73
2022/05/23 07:32:49;;;;;;;3.83;3.17;;;20.20;31.80;;;;;;10436799;28;20579;-73
2022/05/23 07:37:53;;;;;;;4.00;2.97;;;20.20;32.50;;;;;;10434932;28;20717;-72
2022/05/23 07:42:57;;;;;;;5.00;3.50;;;20.20;32.20;;;;;;10432135;28;20217;-73
2022/05/23 07:48:02;;;;;;;4.73;3.60;;;20.20;32.40;;;;;;10433428;28;20749;-73
2022/05/23 08:03:57;;;;;;;4.43;3.87;;;20.30;32.70;;;;;;10397540;28;20589;-73
2022/05/23 08:09:00;;;;;;;4.10;3.50;;;20.30;33.60;;;;;;10429803;28;20351;-69
2022/05/23 08:14:03;;;;;;;4.30;3.70;;;20.30;33.00;;;;;;10429904;28;20217;-69
2022/05/23 08:19:09;;;;;;;4.10;3.67;;;20.20;32.90;;;;;;10433735;28;20233;-70
2022/05/23 08:24:12;;;;;;;3.70;3.40;;;20.20;34.10;;;;;;10428939;28;20228;-69
2022/05/23 08:29:15;;;;;;;4.00;3.40;;;20.10;33.60;;;;;;10428615;28;20237;-69
2022/05/23 08:34:23;;;;;;;4.10;3.73;;;20.20;34.50;;;;;;10430074;28;20229;-70
2022/05/23 08:39:26;;;;;;;3.67;3.37;;;20.20;35.40;;;;;;10430098;28;20229;-69
2022/05/23 08:44:44;;;;;;;4.20;3.23;;;20.40;35.10;;;;;;10416872;28;20228;-69
2022/05/23 08:49:57;;;;;;;3.30;3.00;;;20.60;36.40;;;;;;10422095;28;20248;-69
2022/05/23 08:55:03;;;;;;;3.77;2.93;;;20.90;36.90;;;;;;10415183;28;20225;-70
2022/05/23 09:00:10;;;;;;;3.73;3.43;;;21.20;35.20;;;;;;10419866;28;20225;-70
2022/05/23 09:05:18;;;;;;;3.50;3.10;;;21.40;35.40;;;;;;10420736;28;20732;-69
2022/05/23 09:10:47;;;;;;;3.43;3.13;;;21.70;35.10;;;;;;10422588;28;20213;-74
2022/05/23 09:15:53;;;;;;;3.17;2.87;;;21.90;35.30;;;;;;10424398;28;20796;-75
2022/05/23 09:21:04;;;;;;;3.03;2.83;;;22.20;34.60;;;;;;10426691;28;20240;-74
2022/05/23 09:26:16;;;;;;;2.93;2.63;;;22.40;34.50;;;;;;10428517;28;20304;-73
2022/05/23 09:31:27;;;;;;;3.00;2.57;;;22.70;34.90;;;;;;10424148;28;20228;-74
2022/05/23 09:36:37;;;;;;;2.67;2.27;;;23.00;34.40;;;;;;10423610;28;20307;-74
2022/05/23 09:52:42;;;;;;;2.03;1.83;;;23.70;32.30;;;;;;10427572;28;20220;-74
2022/05/23 09:57:53;;;;;;;2.43;2.10;;;23.90;32.20;;;;;;10420758;28;20240;-74
2022/05/23 10:03:02;;;;;;;2.33;2.13;;;24.10;32.50;;;;;;10423945;28;20229;-74
2022/05/23 10:08:11;;;;;;;2.87;2.20;;;24.30;31.80;;;;;;10426523;28;20237;-74
2022/05/23 10:13:33;;;;;;;2.30;1.90;;;24.50;31.10;;;;;;10417812;28;20787;-69
2022/05/23 10:18:46;;;;;;;2.10;1.90;;;24.70;30.70;;;;;;10423645;28;20230;-69
2022/05/23 10:24:06;;;;;;;2.13;1.93;;;24.90;30.50;;;;;;10422477;28;20232;-69
2022/05/23 10:29:16;;;;;;;2.00;1.90;;;25.00;30.80;;;;;;10419871;28;20220;-69
2022/05/23 10:34:32;;;;;;;1.93;1.83;;;25.20;29.90;;;;;;10423396;28;20791;-70
2022/05/23 10:45:30;;;;;;;1.90;1.80;;;25.50;29.20;;;;;;10422742;28;20244;-73
2022/05/23 10:50:41;;;;;;;2.37;1.70;;;25.60;29.00;;;;;;10384376;28;20221;-74
2022/05/23 10:55:58;;;;;;;2.47;2.17;;;25.70;28.80;;;;;;10432545;28;20225;-74
2022/05/23 11:01:12;;;;;;;2.80;1.93;;;25.80;29.10;;;;;;10435177;28;20231;-72
2022/05/23 11:06:21;;;;;;;2.27;1.80;;;26.00;29.20;;;;;;10433111;28;20279;-74
2022/05/23 11:11:51;;;;;;;2.73;1.97;;;26.10;29.30;;;;;;10433685;28;20258;-69
2022/05/23 11:17:03;;;;;;;2.23;1.90;;;26.30;29.10;;;;;;10426164;28;20713;-69
2022/05/23 11:22:15;;;;;;;2.70;2.20;;;26.40;28.90;;;;;;10425711;28;20356;-70
2022/05/23 11:38:12;;;;;;;2.67;2.00;;;26.70;28.60;;;;;;10424917;28;20240;-70
2022/05/23 11:43:24;;;;;;;3.53;1.80;;;26.90;28.60;;;;;;10427634;28;20245;-69
2022/05/23 11:49:00;;;;;;;2.07;1.50;;;27.10;27.80;;;;;;10424543;28;20286;-69
2022/05/23 11:54:08;;;;;;;3.53;1.87;;;27.20;27.10;;;;;;10426710;28;20221;-69
2022/05/23 11:59:52;;;;;;;2.47;1.47;;;27.40;26.70;;;;;;10421982;28;20236;-69
2022/05/23 12:05:14;;;;;;;2.13;1.60;;;27.50;26.60;;;;;;10426832;28;20235;-69
2022/05/23 12:10:39;;;;;;;3.07;1.80;;;27.50;26.30;;;;;;10422377;28;20244;-69
2022/05/23 12:15:56;;;;;;;2.43;1.57;;;27.60;26.50;;;;;;10421508;28;20228;-69
2022/05/23 12:21:02;;;;;;;3.97;2.00;;;27.70;26.30;;;;;;10419455;28;20622;-69
2022/05/23 12:26:18;;;;;;;2.50;1.63;;;27.80;26.00;;;;;;10423885;28;20225;-69
2022/05/23 12:31:25;;;;;;;2.00;1.90;;;27.90;26.20;;;;;;10420202;28;20228;-69
2022/05/23 12:36:31;;;;;;;2.93;2.00;;;28.00;25.30;;;;;;10420498;28;20237;-69
2022/05/23 12:41:52;;;;;;;3.17;1.80;;;28.10;25.60;;;;;;10419186;28;20516;-69
2022/05/23 12:47:07;;;;;;;2.17;1.80;;;28.20;25.00;;;;;;10418418;28;20239;-69
2022/05/23 12:52:28;;;;;;;3.00;1.90;;;28.30;24.90;;;;;;10418961;28;20229;-69
2022/05/23 12:58:01;;;;;;;2.23;2.00;;;28.40;24.60;;;;;;10417152;28;20926;-69
2022/05/23 13:03:14;;;;;;;1.97;1.77;;;28.40;25.00;;;;;;10419633;28;20232;-69
2022/05/23 13:08:23;;;;;;;2.23;1.90;;;28.50;24.70;;;;;;10427626;28;20235;-69
2022/05/23 13:13:31;;;;;;;4.17;2.00;;;28.60;25.00;;;;;;10432809;28;20634;-69
2022/05/23 13:24:05;;;;;;;2.73;2.00;;;28.80;24.60;;;;;;10429594;28;20228;-69
2022/05/23 13:29:12;;;;;;;3.33;1.93;;;28.90;25.00;;;;;;10431801;28;20255;-70
2022/05/23 13:34:18;;;;;;;4.03;1.93;;;29.10;24.30;;;;;;10431167;28;20723;-70
2022/05/23 13:39:22;;;;;;;3.67;1.97;;;29.20;24.00;;;;;;10429375;28;20233;-70
2022/05/23 13:44:28;;;;;;;4.33;2.00;;;29.20;24.50;;;;;;10427564;28;20244;-69
2022/05/23 13:49:38;;;;;;;2.90;1.90;;;29.30;24.30;;;;;;10431370;28;20228;-69
2022/05/23 13:54:55;;;;;;;2.10;2.00;;;29.30;23.70;;;;;;10429354;28;20236;-68
2022/05/23 14:00:05;;;;;;;3.13;1.90;;;29.40;24.20;;;;;;10429563;28;20234;-68
2022/05/23 14:05:11;;;;;;;1.90;1.80;;;29.50;24.00;;;;;;10429611;28;20236;-68
2022/05/23 14:10:22;;;;;;;2.63;2.10;;;29.60;24.10;;;;;;10424514;28;20217;-68
2022/05/23 14:15:28;;;;;;;3.60;1.90;;;29.60;23.70;;;;;;10427525;28;20233;-68
2022/05/23 14:20:35;;;;;;;2.87;2.00;;;29.70;24.20;;;;;;10428192;28;20225;-68
2022/05/23 14:25:41;;;;;;;4.53;2.30;;;29.70;23.90;;;;;;10431601;28;20779;-69
2022/05/23 14:30:47;;;;;;;6.07;2.27;;;29.80;24.00;;;;;;10429126;28;20605;-69
2022/05/23 14:35:55;;;;;;;3.17;2.20;;;29.80;23.70;;;;;;10431893;28;20228;-69
2022/05/23 14:41:09;;;;;;;3.27;1.93;;;29.80;23.30;;;;;;10440276;28;20233;-72
2022/05/23 14:46:23;;;;;;;2.40;2.17;;;29.80;23.80;;;;;;10435464;28;20879;-72
2022/05/23 14:51:31;;;;;;;3.13;2.30;;;29.80;23.40;;;;;;10436511;28;20305;-73
2022/05/23 14:56:37;;;;;;;3.67;2.40;;;29.80;23.50;;;;;;10435519;28;20244;-73
2022/05/23 15:01:41;;;;;;;3.67;2.50;;;29.70;23.40;;;;;;10436340;28;21170;-72
2022/05/23 15:06:46;;;;;;;2.87;2.37;;;29.70;23.70;;;;;;10436894;28;20245;-72
2022/05/23 15:11:50;;;;;;;5.57;2.23;;;29.60;23.50;;;;;;10435799;28;20233;-73
2022/05/23 15:16:53;;;;;;;3.27;2.40;;;29.60;23.80;;;;;;10433085;28;20225;-73
2022/05/23 15:21:58;;;;;;;2.60;2.10;;;29.50;23.80;;;;;;10434792;28;20225;-73
2022/05/23 15:27:02;;;;;;;3.37;2.33;;;29.50;23.90;;;;;;10429378;28;20232;-73
2022/05/23 15:32:06;;;;;;;3.30;2.70;;;29.40;23.90;;;;;;10431893;28;20895;-72
2022/05/23 15:37:10;;;;;;;2.97;2.30;;;29.40;23.90;;;;;;10432601;28;20225;-72
2022/05/23 15:42:20;;;;;;;5.20;2.40;;;29.30;23.80;;;;;;10435592;28;20225;-73
2022/05/23 15:47:25;;;;;;;3.20;2.40;;;29.30;23.80;;;;;;10432777;28;20240;-73
2022/05/23 15:52:31;;;;;;;4.10;2.33;;;29.20;23.80;;;;;;10431540;28;20806;-73
2022/05/23 15:57:37;;;;;;;2.83;2.30;;;29.20;23.90;;;;;;10432735;28;20224;-72
2022/05/23 16:02:41;;;;;;;3.67;2.20;;;29.10;24.60;;;;;;10430836;28;20229;-73
2022/05/23 16:13:10;;;;;;;2.17;1.97;;;28.90;23.90;;;;;;10434665;28;20209;-73
2022/05/23 16:18:14;;;;;;;3.93;2.30;;;28.90;23.80;;;;;;10433095;28;20240;-73
2022/05/23 16:23:19;;;;;;;2.77;2.03;;;28.80;23.90;;;;;;10433845;28;20228;-73
2022/05/23 16:28:22;;;;;;;2.83;2.20;;;28.70;23.90;;;;;;10432520;28;20237;-73
2022/05/23 16:38:48;;;;;;;2.97;2.30;;;28.50;24.10;;;;;;10435386;28;20228;-73
2022/05/23 16:43:53;;;;;;;2.70;2.50;;;28.50;24.30;;;;;;10426018;28;20236;-73
2022/05/23 16:48:56;;;;;;;3.77;2.10;;;28.50;24.90;;;;;;10431969;28;20229;-73
2022/05/23 16:54:02;;;;;;;3.33;2.00;;;28.50;25.10;;;;;;10433009;28;20225;-73
2022/05/23 16:59:06;;;;;;;2.40;2.20;;;28.50;25.00;;;;;;10433578;28;20307;-72
2022/05/23 17:04:09;;;;;;;3.10;2.40;;;28.40;24.90;;;;;;10433584;28;20855;-73
2022/05/23 17:09:14;;;;;;;2.67;2.10;;;28.30;24.70;;;;;;10431362;28;20741;-73
2022/05/23 17:14:17;;;;;;;2.80;2.20;;;28.20;24.90;;;;;;10432119;28;20224;-73
2022/05/23 17:19:21;;;;;;;2.80;2.10;;;28.10;24.60;;;;;;10433432;28;20225;-73
2022/05/23 17:24:25;;;;;;;2.80;1.70;;;28.00;24.70;;;;;;10433367;28;20232;-73
2022/05/23 17:29:29;;;;;;;4.23;1.90;;;27.80;24.70;;;;;;10428651;28;20235;-72
2022/05/23 17:34:32;;;;;;;2.83;2.00;;;27.70;24.80;;;;;;10432402;28;20225;-73
2022/05/23 17:39:36;;;;;;;2.90;2.20;;;27.60;25.10;;;;;;10430134;28;20236;-72
2022/05/23 17:44:39;;;;;;;2.17;1.90;;;27.40;26.50;;;;;;10431506;28;20851;-73
2022/05/23 17:49:43;;;;;;;4.10;2.50;;;27.20;25.90;;;;;;10431346;28;20732;-73
2022/05/23 17:54:48;;;;;;;2.03;1.10;;;27.00;26.40;;;;;;10429422;28;20236;-68
2022/05/23 17:59:52;;;;;;;1.97;1.10;;;26.60;25.60;;;;;;10432084;28;20260;-69
2022/05/23 18:04:55;;;;;;;2.77;1.20;;;25.90;26.10;;;;;;10428641;28;20236;-69
2022/05/23 18:10:00;;;;;;;7.20;1.50;;;25.10;26.90;;;;;;10429386;28;20224;-69
2022/05/23 18:20:25;;;;;;;2.47;1.20;;;24.00;28.00;;;;;;10426037;28;20323;-69
2022/05/23 18:25:29;;;;;;;4.70;1.27;;;23.70;28.30;;;;;;10428737;28;20741;-69
2022/05/23 18:30:33;;;;;;;2.13;1.00;;;23.40;29.10;;;;;;10431647;28;20251;-69
2022/05/23 18:35:36;;;;;;;1.77;1.27;;;23.20;28.90;;;;;;10430480;28;20228;-69
2022/05/23 18:40:40;;;;;;;2.87;1.27;;;23.00;29.30;;;;;;10427510;28;20225;-69
2022/05/23 18:45:44;;;;;;;1.97;1.30;;;22.80;30.30;;;;;;10427596;28;20266;-69
2022/05/23 18:50:47;;;;;;;3.47;1.40;;;22.70;30.00;;;;;;10430775;28;20229;-69
2022/05/23 18:55:53;;;;;;;3.40;1.67;;;22.60;30.00;;;;;;10430154;28;20229;-69
2022/05/23 19:00:56;;;;;;;4.00;1.60;;;22.40;31.00;;;;;;10429699;28;20324;-69
2022/05/23 19:05:59;;;;;;;3.77;1.63;;;22.30;30.50;;;;;;10427870;28;20232;-70
2022/05/23 19:11:04;;;;;;;3.57;1.60;;;22.10;30.70;;;;;;10426560;28;20229;-69
2022/05/23 19:16:27;;;;;;;5.60;1.50;;;22.00;32.50;;;;;;10428638;28;20232;-69
2022/05/23 19:21:32;;;;;;;2.73;1.60;;;21.90;31.50;;;;;;10427838;28;20222;-69
2022/05/23 19:26:37;;;;;;;3.40;1.63;;;21.70;31.40;;;;;;10430627;28;20236;-69
2022/05/23 19:31:40;;;;;;;3.07;1.70;;;21.60;32.50;;;;;;10436112;28;20225;-69
2022/05/23 19:36:43;;;;;;;2.57;1.50;;;21.60;32.10;;;;;;10433877;28;21444;-69
2022/05/23 19:41:48;;;;;;;1.83;1.60;;;21.60;32.20;;;;;;10436200;28;20224;-69
2022/05/23 19:46:52;;;;;;;2.40;1.40;;;21.60;33.60;;;;;;10436935;28;20229;-69
2022/05/23 19:51:55;;;;;;;3.03;1.40;;;21.60;33.30;;;;;;10440707;28;20713;-69
2022/05/23 19:57:00;;;;;;;3.30;1.40;;;21.70;33.40;;;;;;10437724;28;20228;-69
2022/05/23 20:07:27;;;;;;;3.00;1.60;;;21.90;33.40;;;;;;10435818;28;20228;-69
2022/05/23 20:12:31;;;;;;;2.50;1.50;;;21.80;33.80;;;;;;10433815;28;20948;-70
2022/05/23 20:17:36;;;;;;;3.23;1.73;;;21.80;33.70;;;;;;10428734;28;20666;-69
2022/05/23 20:22:40;;;;;;;2.87;1.73;;;21.50;33.30;;;;;;10430882;28;20582;-69
2022/05/23 20:27:48;;;;;;;3.07;1.40;;;21.30;33.90;;;;;;10429760;28;20828;-70
2022/05/23 20:32:52;;;;;;;2.93;1.70;;;20.90;36.00;;;;;;10430331;28;20225;-69
2022/05/23 20:37:55;;;;;;;3.07;1.87;;;20.70;35.20;;;;;;10429203;28;20228;-70
2022/05/23 20:43:00;;;;;;;2.50;1.60;;;20.50;35.70;;;;;;10426021;28;20228;-69
2022/05/23 20:48:05;;;;;;;3.73;1.47;;;20.40;36.90;;;;;;10429230;28;20253;-69
2022/05/23 20:53:09;;;;;;;2.40;1.53;;;20.30;36.80;;;;;;10431071;28;20224;-70
2022/05/23 20:58:14;;;;;;;3.20;1.90;;;20.20;36.70;;;;;;10429176;28;20229;-70
2022/05/23 21:03:17;;;;;;;2.57;1.80;;;20.10;37.70;;;;;;10429679;28;20232;-70
2022/05/23 21:08:30;;;;;;;3.63;1.67;;;20.10;36.60;;;;;;10430988;28;20261;-71
2022/05/23 21:13:35;;;;;;;2.20;1.43;;;20.00;36.80;;;;;;10428954;28;20268;-71
2022/05/23 21:18:38;;;;;;;3.87;1.57;;;20.00;38.20;;;;;;10429450;28;20232;-70
2022/05/23 21:23:42;;;;;;;1.73;1.10;;;19.90;37.30;;;;;;10427880;28;20221;-70
2022/05/23 21:28:46;;;;;;;2.23;1.20;;;19.90;37.60;;;;;;10422036;28;20253;-70
2022/05/23 21:33:49;;;;;;;1.43;1.23;;;19.90;38.90;;;;;;10432717;28;20263;-71
2022/05/23 21:38:53;;;;;;;2.40;1.10;;;19.80;38.30;;;;;;10431822;28;20294;-70
2022/05/23 21:49:18;;;;;;;2.87;1.10;;;19.70;39.10;;;;;;10428061;28;20233;-71
2022/05/23 21:54:21;;;;;;;1.27;0.93;;;19.60;38.30;;;;;;10430064;28;20300;-70
2022/05/23 21:59:26;;;;;;;0.80;0.80;;;19.60;38.40;;;;;;10429918;28;20689;-71
2022/05/23 22:04:29;;;;;;;1.03;0.93;;;19.70;39.30;;;;;;10429208;28;20233;-71
2022/05/23 22:09:33;;;;;;;2.50;0.90;;;19.60;38.50;;;;;;10429431;28;20235;-70
2022/05/23 22:14:38;;;;;;;2.13;0.70;;;19.70;38.70;;;;;;10432825;28;20217;-70
2022/05/23 22:19:41;;;;;;;2.50;0.90;;;19.70;39.20;;;;;;10429763;28;20727;-70
2022/05/23 22:24:45;;;;;;;1.27;0.97;;;19.70;38.60;;;;;;10429594;28;20221;-71
2022/05/23 22:29:49;;;;;;;1.63;0.63;;;19.70;38.50;;;;;;10432714;28;20383;-70
2022/05/23 22:34:53;;;;;;;1.30;0.80;;;19.70;39.50;;;;;;10430146;28;20221;-71
2022/05/23 22:39:56;;;;;;;0.77;0.70;;;19.70;38.70;;;;;;10432301;28;20709;-71
2022/05/23 22:45:00;;;;;;;0.93;0.80;;;19.70;38.90;;;;;;10429355;28;20221;-70
2022/05/23 22:50:04;;;;;;;1.80;0.93;;;19.80;39.70;;;;;;10427327;28;20860;-70
2022/05/23 22:55:09;;;;;;;0.70;0.70;;;19.80;39.10;;;;;;10430037;28;20217;-70
2022/05/23 23:00:16;;;;;;;1.00;0.90;;;19.80;39.50;;;;;;10436511;28;20228;-71
2022/05/23 23:05:19;;;;;;;1.10;1.00;;;19.90;40.40;;;;;;10438277;28;20239;-70
2022/05/23 23:10:23;;;;;;;1.00;0.70;;;19.90;39.10;;;;;;10440464;28;20579;-70
2022/05/23 23:15:28;;;;;;;1.17;0.90;;;19.90;39.00;;;;;;10436672;28;20235;-70
2022/05/23 23:20:31;;;;;;;1.73;0.80;;;19.90;39.50;;;;;;10437735;28;20236;-70
2022/05/23 23:25:34;;;;;;;1.00;0.90;;;19.90;38.90;;;;;;10439559;28;20230;-70
2022/05/23 23:30:39;;;;;;;0.93;0.80;;;19.90;38.80;;;;;;10439497;28;20228;-70
2022/05/23 23:41:03;;;;;;;1.20;0.90;;;19.80;39.10;;;;;;10439647;28;20217;-70
2022/05/23 23:46:08;;;;;;;1.23;1.00;;;19.80;39.40;;;;;;10434207;28;20237;-70
2022/05/23 23:51:11;;;;;;;1.30;0.90;;;19.70;40.20;;;;;;10437530;28;20253;-70
2022/05/23 23:56:14;;;;;;;1.57;1.10;;;19.70;39.50;;;;;;10435847;28;20248;-71
